หน้าหลัก
METAR-TAF:

METAR-TAF

ท่าอากาศยาน :

เม็กซิโกซิตี, เม็กซิโก

ละติจูด: 19-26N, ลองจิจูด: 099-06W, ความสูง: 2238 ม.

การสังเกตสภาพอากาศปัจจุบัน

รายงานได้ทำขึ้นเมื่อ 53 นาทีที่แล้ว ณ เวลา 09:49 UTC
ลม 4 นอตจากตะวันตกเฉียงเหนือ
อุณหภูมิ 17°C
ความชื้น 59%
ความกดอากาศ 1021 hPa
ทัศนวิสัย: 16.1 กม.
ท้องฟ้าแจ่มใส

METAR: MMMX 170949Z 31004KT 10SM SKC 17/09 A3016 NOSIG RMK ISOL SC AC

เวลา: 05:42 (10:42 UTC)

การพยากรณ์

รายงานได้ทำขึ้นเมื่อ 6 ชั่วโมงและ 22 นาทีที่แล้ว ณ เวลา 04:20 UTC
การพยากรณ์มีผลตั้งแต่วันที่ 17 ณ เวลา 06 UTC จนถึงวันที่ 18 ณ เวลา 06 UTC
ลม 10 นอตจากตะวันออกเฉียงเหนือ
ทัศนวิสัย: 10 กม.
ท้องฟ้าแจ่มใส
กำลังกลายเป็น
ตั้งแต่วันที่ 17 ณ เวลา 09 UTC จนถึงวันที่ 17 ณ เวลา 10 UTC
ลม นอตจากเหนือ
จาก 17 ณ เวลา 1900 UTC
ลม 12 นอตจากเหนือ
ทัศนวิสัย: 10 กม.
มีเมฆกระจายเป็นบางส่วนที่ความสูง 22000 ฟุต
ชั่วคราว
ตั้งแต่วันที่ 17 ณ เวลา 23 UTC จนถึงวันที่ 18 ณ เวลา 03 UTC
ลม 15 นอตจากเหนือโดยมีลมกระโชกได้ถึง25 นอต

TAF: MMMX 170420Z 1706/1806 05010KT P6SM SKC TX29/1721Z TN16/1712Z BECMG 1709/1710 00000KT FM171900 01012KT P6SM SCT220 TEMPO 1723/1803 01015G25KT

สังเกตการณ์สภาพอากาศและพยากรณ์อากาศของสนามบินมากกว่า 4000 แห่ง (รายงาน METAR และ TAF).

สถานีที่ดูได้จะแสดงไว้ด้วยจุดสีเหลืองและสีแดงบนแผนที่.

เลื่อนเมาส์ไปเหนือจุดเพื่อดูชื่อสถานี.

แล้วคลิกเพื่อดูสังเกตการณ์และการพยากรณ์สภาพอากาศ.

ในการเปลี่ยนแผนที่: คลิกที่ปุ่มสีเขียวที่มีกากบาทสีดำเพื่อซูมเข้า; ที่ปุ่มสีเขียวที่มีขีดเพื่อซูมออก; หรือที่ลูกศรสีเขียวเพื่อไปยังแผนที่ที่อยู่ติดกัน.


METAR-TAF: